Time;durP1;ratioP1;P1;durP2;ratioP2;P2;SDS_P1;SDS_P2;PMS_P1;PMS_P2;Temp;Humidity;BMP_temperature;BMP_pressure;BME280_temperature;BME280_humidity;BME280_pressure;Samples;Min_cycle;Max_cycle;Signal;HPM_P1;HPM_P2
2021/07/13 00:02:22;;;;;;;13.23;8.25;;;29.60;55.80;;;;;;5113355;28;20035;-83
2021/07/13 00:04:49;;;;;;;17.38;8.23;;;29.60;56.20;;;;;;5113468;28;20035;-83
2021/07/13 00:07:16;;;;;;;16.90;8.88;;;29.60;57.10;;;;;;5078166;28;20032;-81
2021/07/13 00:09:42;;;;;;;18.15;8.90;;;29.50;56.50;;;;;;5113565;28;20043;-80
2021/07/13 00:12:09;;;;;;;14.13;8.45;;;29.50;56.50;;;;;;5113526;28;20043;-80
2021/07/13 00:14:36;;;;;;;15.93;8.88;;;29.50;56.40;;;;;;5113523;28;20040;-80
2021/07/13 00:17:05;;;;;;;17.23;8.52;;;29.50;56.90;;;;;;5113432;28;20058;-83
2021/07/13 00:19:35;;;;;;;18.05;9.40;;;29.50;56.50;;;;;;5095716;28;20071;-82
2021/07/13 00:22:02;;;;;;;13.57;9.07;;;29.50;56.30;;;;;;5095656;28;20380;-82
2021/07/13 00:24:28;;;;;;;11.65;7.72;;;29.40;56.50;;;;;;5113292;28;20031;-83
2021/07/13 00:26:54;;;;;;;15.25;8.32;;;29.40;56.10;;;;;;5113928;28;20051;-82
2021/07/13 00:29:20;;;;;;;13.02;8.32;;;29.50;56.00;;;;;;5113730;28;20039;-82
2021/07/13 00:31:45;;;;;;;14.32;8.57;;;29.60;55.60;;;;;;5113718;28;20395;-81
2021/07/13 00:34:11;;;;;;;15.93;8.65;;;29.50;55.20;;;;;;5113802;28;20034;-81
2021/07/13 00:36:37;;;;;;;14.23;8.15;;;29.60;55.20;;;;;;5113444;28;20042;-81
2021/07/13 00:39:04;;;;;;;13.65;8.65;;;29.60;55.10;;;;;;5113894;28;20483;-84
2021/07/13 00:41:34;;;;;;;12.75;8.45;;;29.60;55.00;;;;;;5113645;28;20037;-84
2021/07/13 00:44:00;;;;;;;14.50;8.40;;;29.60;54.80;;;;;;5078644;28;20039;-84
2021/07/13 00:46:26;;;;;;;12.75;8.13;;;29.70;54.70;;;;;;5113868;28;20043;-84
2021/07/13 00:48:52;;;;;;;10.52;7.85;;;29.70;54.60;;;;;;5113303;28;20040;-83
2021/07/13 00:51:18;;;;;;;13.93;8.30;;;29.70;54.50;;;;;;5113860;28;20047;-82
2021/07/13 00:53:47;;;;;;;12.35;8.75;;;29.70;54.70;;;;;;5095064;28;20066;-83
2021/07/13 00:56:13;;;;;;;14.35;8.38;;;29.70;54.40;;;;;;5094935;28;20059;-81
2021/07/13 00:58:39;;;;;;;17.88;8.55;;;29.70;54.40;;;;;;5113508;28;20047;-83
2021/07/13 01:01:06;;;;;;;16.00;9.65;;;29.70;54.50;;;;;;5095246;28;20050;-82
2021/07/13 01:03:34;;;;;;;18.25;8.77;;;29.70;54.40;;;;;;5094468;28;20023;-83
2021/07/13 01:06:01;;;;;;;16.92;9.65;;;29.70;54.40;;;;;;5113403;28;20368;-83
2021/07/13 01:08:55;;;;;;;15.27;10.07;;;29.70;54.10;;;;;;5112821;28;20036;-84
2021/07/13 01:11:46;;;;;;;16.17;8.83;;;29.70;54.10;;;;;;5113571;28;20491;-83
2021/07/13 01:14:27;;;;;;;15.02;9.82;;;29.60;54.30;;;;;;5113016;28;20039;-85
2021/07/13 01:16:55;;;;;;;16.23;10.00;;;29.60;54.70;;;;;;5094122;28;20048;-80
2021/07/13 01:19:55;;;;;;;16.83;10.35;;;29.50;54.70;;;;;;5095629;28;20126;-80
2021/07/13 01:22:45;;;;;;;16.00;9.75;;;29.40;55.00;;;;;;5112673;28;20504;-81
2021/07/13 01:25:33;;;;;;;17.33;9.55;;;29.50;55.00;;;;;;5114969;28;20062;-81
2021/07/13 01:28:18;;;;;;;13.75;9.70;;;29.40;55.00;;;;;;5074967;28;20419;-81
2021/07/13 01:30:50;;;;;;;14.20;9.70;;;29.50;54.80;;;;;;5116545;28;20495;-79
2021/07/13 01:33:24;;;;;;;14.73;9.75;;;29.50;54.70;;;;;;5098491;28;20507;-83
2021/07/13 01:35:56;;;;;;;15.75;9.95;;;29.50;54.80;;;;;;5116579;28;20031;-83
2021/07/13 01:38:26;;;;;;;14.77;9.48;;;29.60;54.80;;;;;;5098010;28;20096;-82
2021/07/13 01:41:04;;;;;;;18.33;9.77;;;29.60;54.70;;;;;;5116441;28;20081;-83
2021/07/13 01:43:30;;;;;;;15.38;9.73;;;29.60;54.70;;;;;;5116577;28;20043;-82
2021/07/13 01:45:57;;;;;;;14.25;10.13;;;29.60;54.60;;;;;;5116223;28;20027;-82
2021/07/13 01:48:29;;;;;;;14.55;8.63;;;29.60;54.60;;;;;;5097702;28;20039;-81
2021/07/13 01:50:56;;;;;;;16.25;10.13;;;29.60;54.60;;;;;;5116666;28;20074;-82
2021/07/13 01:53:23;;;;;;;15.02;10.45;;;29.60;54.50;;;;;;5097553;28;20496;-81
2021/07/13 01:55:50;;;;;;;15.70;9.50;;;29.50;54.60;;;;;;5115952;28;20528;-81
2021/07/13 01:58:18;;;;;;;12.70;9.27;;;29.50;54.80;;;;;;5115726;28;20035;-81
2021/07/13 02:00:45;;;;;;;13.38;8.90;;;29.40;55.00;;;;;;5098115;28;20444;-81
2021/07/13 02:03:12;;;;;;;15.77;8.93;;;29.40;55.20;;;;;;5115687;28;20036;-80
2021/07/13 02:05:39;;;;;;;12.95;9.23;;;29.40;55.10;;;;;;5115659;28;20038;-81
2021/07/13 02:08:06;;;;;;;20.50;10.00;;;29.40;54.90;;;;;;5115574;28;20059;-80
2021/07/13 02:10:33;;;;;;;14.13;9.70;;;29.40;54.70;;;;;;5097388;28;20036;-80
2021/07/13 02:12:59;;;;;;;12.60;8.88;;;29.40;54.60;;;;;;5115621;28;20118;-80
2021/07/13 02:15:25;;;;;;;18.77;9.93;;;29.40;54.70;;;;;;5115671;28;20251;-80
2021/07/13 02:17:51;;;;;;;12.65;9.18;;;29.40;54.60;;;;;;5115213;28;20054;-80
2021/07/13 02:20:19;;;;;;;13.75;8.80;;;29.50;54.80;;;;;;5097418;28;20039;-81
2021/07/13 02:22:46;;;;;;;17.02;9.45;;;29.50;54.70;;;;;;5115440;28;20035;-81
2021/07/13 02:25:15;;;;;;;15.60;8.85;;;29.50;54.50;;;;;;5115466;28;20032;-81
2021/07/13 02:27:47;;;;;;;14.38;8.70;;;29.60;54.60;;;;;;5097292;28;20031;-81
2021/07/13 02:30:13;;;;;;;12.45;8.75;;;29.70;54.50;;;;;;5097151;28;20122;-82
2021/07/13 02:32:42;;;;;;;12.27;8.82;;;29.80;54.50;;;;;;5115428;28;20039;-80
2021/07/13 02:35:12;;;;;;;13.68;8.85;;;29.90;54.20;;;;;;5097629;28;20032;-81
2021/07/13 02:37:39;;;;;;;16.58;9.52;;;30.00;54.30;;;;;;5096549;28;20452;-80
2021/07/13 02:40:11;;;;;;;12.80;8.95;;;30.10;53.90;;;;;;5079824;28;20127;-80
2021/07/13 02:42:37;;;;;;;12.70;8.95;;;30.20;53.70;;;;;;5097211;28;20031;-80
2021/07/13 02:45:06;;;;;;;13.38;9.68;;;30.30;54.40;;;;;;5097391;28;20043;-80
2021/07/13 02:47:32;;;;;;;12.88;8.93;;;30.40;53.70;;;;;;5096983;28;20040;-80
2021/07/13 02:50:00;;;;;;;11.52;8.77;;;30.50;53.80;;;;;;5114787;28;20043;-81
2021/07/13 02:52:31;;;;;;;11.60;8.15;;;30.50;53.80;;;;;;5114708;28;20499;-83
2021/07/13 02:55:09;;;;;;;14.93;8.68;;;30.60;53.80;;;;;;5114935;28;20088;-83
2021/07/13 02:57:37;;;;;;;14.70;8.20;;;30.70;54.00;;;;;;5114747;28;20077;-82
2021/07/13 03:00:09;;;;;;;13.90;8.90;;;30.80;54.00;;;;;;5096665;28;20126;-83
2021/07/13 03:02:36;;;;;;;12.20;8.25;;;30.80;53.90;;;;;;5096452;28;20185;-81
2021/07/13 03:05:03;;;;;;;14.75;9.02;;;30.90;53.60;;;;;;5114473;28;20089;-81
2021/07/13 03:07:30;;;;;;;12.60;8.30;;;;;;;;;;5096620;28;20089;-81
2021/07/13 03:09:57;;;;;;;13.27;8.23;;;;;;;;;;5114781;28;20368;-81
2021/07/13 03:12:23;;;;;;;12.32;8.27;;;;;;;;;;5096210;28;20023;-80
2021/07/13 03:14:50;;;;;;;12.80;8.23;;;;;;;;;;5114576;28;20118;-81
2021/07/13 03:17:17;;;;;;;10.30;7.43;;;;;;;;;;5113949;28;20053;-80
2021/07/13 03:19:44;;;;;;;10.57;7.53;;;;;;;;;;5114383;28;20040;-81
2021/07/13 03:22:25;;;;;;;12.10;7.85;;;30.70;53.60;;;;;;5114667;28;20039;-81
2021/07/13 03:24:52;;;;;;;12.52;8.13;;;30.70;54.10;;;;;;5115469;28;20491;-81
2021/07/13 03:27:21;;;;;;;15.35;8.00;;;30.60;54.20;;;;;;5114310;28;20391;-81
2021/07/13 03:29:53;;;;;;;15.80;7.82;;;30.60;54.50;;;;;;5114142;28;20036;-80
2021/07/13 03:32:20;;;;;;;12.10;8.30;;;30.70;54.50;;;;;;5095670;28;20086;-80
2021/07/13 03:34:47;;;;;;;14.05;8.68;;;;;;;;;;5096352;28;20138;-78
2021/07/13 03:37:14;;;;;;;12.48;9.55;;;30.80;54.50;;;;;;5114038;28;20040;-77
2021/07/13 03:39:40;;;;;;;13.02;8.05;;;;;;;;;;5113903;28;20042;-76
2021/07/13 03:42:07;;;;;;;15.85;9.30;;;;;;;;;;5114033;28;20039;-79
2021/07/13 03:44:34;;;;;;;12.88;9.20;;;;;;;;;;5113746;28;20024;-79
2021/07/13 03:47:00;;;;;;;18.20;9.60;;;31.20;55.00;;;;;;5095290;28;20028;-79
2021/07/13 03:49:27;;;;;;;13.05;9.02;;;31.30;55.80;;;;;;5113686;28;20484;-87
2021/07/13 03:51:53;;;;;;;14.77;8.63;;;31.40;55.20;;;;;;5113643;28;20043;-86
2021/07/13 03:54:20;;;;;;;12.00;8.00;;;;;;;;;;5113406;28;20381;-85
2021/07/13 03:56:48;;;;;;;13.80;7.95;;;;;;;;;;5113739;28;20495;-84
2021/07/13 03:59:14;;;;;;;15.13;7.85;;;;;;;;;;5113245;28;20035;-79
2021/07/13 04:01:40;;;;;;;12.75;7.63;;;;;;;;;;5113420;28;20036;-81
2021/07/13 04:04:06;;;;;;;9.93;7.70;;;31.90;54.90;;;;;;5113261;28;20046;-74
2021/07/13 04:06:33;;;;;;;16.45;8.07;;;;;;;;;;5113624;28;20031;-77
2021/07/13 04:09:00;;;;;;;9.95;7.07;;;;;;;;;;5095240;28;20437;-75
2021/07/13 04:11:26;;;;;;;12.38;7.07;;;;;;;;;;5113308;28;20085;-73
2021/07/13 04:13:53;;;;;;;13.27;7.07;;;;;;;;;;5113080;28;20042;-75
2021/07/13 04:16:19;;;;;;;10.45;7.07;;;;;;;;;;5112869;28;20080;-75
2021/07/13 04:18:45;;;;;;;10.73;7.25;;;;;;;;;;5095002;28;20095;-75
2021/07/13 04:21:12;;;;;;;8.75;6.78;;;;;;;;;;5113584;28;20035;-75
2021/07/13 04:23:38;;;;;;;10.38;7.22;;;;;;;;;;5113021;28;20035;-75
2021/07/13 04:26:05;;;;;;;17.65;8.20;;;;;;;;;;5095398;28;20487;-75
2021/07/13 04:28:31;;;;;;;12.10;7.07;;;;;;;;;;5113159;28;20042;-76
2021/07/13 04:30:58;;;;;;;10.52;6.65;;;;;;;;;;5113177;28;20523;-76
2021/07/13 04:33:25;;;;;;;15.63;7.50;;;;;;;;;;5113245;28;20028;-76
2021/07/13 04:35:51;;;;;;;15.38;7.05;;;;;;;;;;5094897;28;20048;-74
2021/07/13 04:38:17;;;;;;;12.93;6.82;;;;;;;;;;5112770;28;20047;-74
2021/07/13 04:40:43;;;;;;;11.45;6.63;;;;;;;;;;5094834;28;20373;-75
2021/07/13 04:43:10;;;;;;;9.98;5.90;;;;;;;;;;5094873;28;20126;-75
2021/07/13 04:45:36;;;;;;;11.55;6.20;;;;;;;;;;5112929;28;20031;-76
2021/07/13 04:48:02;;;;;;;17.10;6.32;;;;;;;;;;5113167;28;20494;-76
2021/07/13 04:50:28;;;;;;;14.77;7.70;;;;;;;;;;5094074;28;20039;-75
2021/07/13 04:52:55;;;;;;;12.52;7.28;;;;;;;;;;5093378;28;20066;-76
2021/07/13 04:55:21;;;;;;;12.50;7.15;;;;;;;;;;5111395;28;20032;-76
2021/07/13 04:57:47;;;;;;;17.27;7.00;;;;;;;;;;5110774;28;20092;-77
2021/07/13 05:00:14;;;;;;;12.73;6.40;;;;;;;;;;5114483;28;20031;-79
2021/07/13 05:02:41;;;;;;;13.18;6.45;;;;;;;;;;5117166;28;20039;-78
2021/07/13 05:05:10;;;;;;;7.05;5.07;;;;;;;;;;5082153;28;20161;-77
2021/07/13 05:07:42;;;;;;;13.77;5.93;;;;;;;;;;5098466;28;20035;-80
2021/07/13 05:10:12;;;;;;;10.85;5.32;;;;;;;;;;5081897;28;20031;-83
2021/07/13 05:12:39;;;;;;;11.90;5.32;;;;;;;;;;5098898;28;20044;-79
2021/07/13 05:15:06;;;;;;;9.48;5.18;;;;;;;;;;5098186;28;20039;-78
2021/07/13 05:17:33;;;;;;;11.48;5.30;;;;;;;;;;5116014;28;20051;-82
2021/07/13 05:19:59;;;;;;;8.48;4.93;;;;;;;;;;5081160;28;20050;-82
2021/07/13 05:22:26;;;;;;;8.25;4.38;;;;;;;;;;5116457;28;20035;-82
2021/07/13 05:24:52;;;;;;;9.95;4.88;;;;;;;;;;5097935;28;20032;-82
2021/07/13 05:27:18;;;;;;;11.45;4.90;;;;;;;;;;5098149;28;20496;-82
2021/07/13 05:29:44;;;;;;;9.00;4.97;;;;;;;;;;5098250;28;20059;-82
2021/07/13 05:32:11;;;;;;;10.27;4.68;;;;;;;;;;5116025;28;20071;-82
2021/07/13 05:34:38;;;;;;;6.72;3.88;;;;;;;;;;5116474;28;20093;-82
2021/07/13 05:37:06;;;;;;;7.60;3.85;;;;;;;;;;5116440;28;20035;-82
2021/07/13 05:39:32;;;;;;;7.10;4.38;;;;;;;;;;5115983;28;20047;-82
2021/07/13 05:41:59;;;;;;;8.68;3.95;;;;;;;;;;5116073;28;20031;-77
2021/07/13 05:44:25;;;;;;;9.45;4.60;;;;;;;;;;5115994;28;20036;-80
2021/07/13 05:46:51;;;;;;;6.95;3.72;;;;;;;;;;5097948;28;20039;-86
2021/07/13 05:49:17;;;;;;;6.82;4.00;;;;;;;;;;5116201;28;20040;-87
2021/07/13 05:51:44;;;;;;;8.13;3.90;;;;;;;;;;5115936;28;20174;-87
2021/07/13 05:54:11;;;;;;;10.32;3.90;;;;;;;;;;5115713;28;20038;-85
2021/07/13 05:56:37;;;;;;;10.27;3.80;;;;;;;;;;5115478;28;20123;-84
2021/07/13 05:59:05;;;;;;;7.85;3.58;;;;;;;;;;5097736;28;20047;-82
2021/07/13 06:01:31;;;;;;;4.88;3.80;;;;;;;;;;5097586;28;20495;-81
2021/07/13 06:03:57;;;;;;;7.15;3.83;;;;;;;;;;5081185;28;20089;-84
2021/07/13 06:06:26;;;;;;;7.97;3.47;;;;;;;;;;5097675;28;20038;-83
2021/07/13 06:08:53;;;;;;;5.32;3.33;;;;;;;;;;5080712;28;20040;-81
2021/07/13 06:11:19;;;;;;;5.05;3.30;;;;;;;;;;5096889;28;20043;-81
2021/07/13 06:13:45;;;;;;;6.93;3.45;;;;;;;;;;5115953;28;20040;-84
2021/07/13 06:16:11;;;;;;;6.72;3.83;;;;;;;;;;5080486;28;20036;-83
2021/07/13 06:18:38;;;;;;;7.38;3.65;;;;;;;;;;5097009;28;20043;-81
2021/07/13 06:21:05;;;;;;;4.32;3.60;;;;;;;;;;5115364;28;20508;-82
2021/07/13 06:23:31;;;;;;;4.68;3.85;;;;;;;;;;5096973;28;20491;-81
2021/07/13 06:25:58;;;;;;;4.10;3.50;;;;;;;;;;5080213;28;20032;-81
2021/07/13 06:28:24;;;;;;;4.70;3.47;;;;;;;;;;5096962;28;20184;-83
2021/07/13 06:30:50;;;;;;;13.13;4.03;;;;;;;;;;5115703;28;20118;-91
2021/07/13 06:33:16;;;;;;;7.35;3.75;;;;;;;;;;5115361;28;20039;-81
2021/07/13 06:35:45;;;;;;;7.25;4.03;;;;;;;;;;5115273;28;20118;-81
2021/07/13 06:38:11;;;;;;;13.10;6.88;;;;;;;;;;5115152;28;20039;-81
2021/07/13 06:40:38;;;;;;;18.15;9.30;;;;;;;;;;5115191;28;20032;-82
2021/07/13 06:43:04;;;;;;;16.17;9.20;;;;;;;;;;5097109;28;20518;-88
2021/07/13 06:45:30;;;;;;;14.95;8.45;;;;;;;;;;5114992;28;20036;-86
2021/07/13 06:47:56;;;;;;;9.38;6.07;;;;;;;;;;5097308;28;20410;-87
2021/07/13 06:50:23;;;;;;;10.50;5.50;;;;;;;;;;5114949;28;20039;-82
2021/07/13 06:52:50;;;;;;;21.15;5.63;;;;;;;;;;5115180;28;20031;-83
2021/07/13 06:55:16;;;;;;;9.63;5.07;;;;;;;;;;5098932;28;20039;-83
2021/07/13 06:57:42;;;;;;;14.30;4.63;;;;;;;;;;5115394;28;20043;-82
2021/07/13 07:00:10;;;;;;;8.13;4.22;;;;;;;;;;5114332;28;20487;-78
2021/07/13 07:02:36;;;;;;;8.43;5.20;;;;;;;;;;5114486;28;20058;-78
2021/07/13 07:05:03;;;;;;;7.85;4.13;;;;;;;;;;5114471;28;20120;-78
2021/07/13 07:07:29;;;;;;;5.50;3.95;;;;;;;;;;5096913;28;20066;-78
2021/07/13 07:09:55;;;;;;;9.48;4.18;;;;;;;;;;5114333;28;20035;-77
2021/07/13 07:12:22;;;;;;;16.85;4.70;;;;;;;;;;5079249;28;20036;-76
2021/07/13 07:14:48;;;;;;;10.88;4.80;;;;;;;;;;5114055;28;20180;-80
2021/07/13 07:17:14;;;;;;;16.42;4.22;;;;;;;;;;5095988;28;20062;-77
2021/07/13 07:19:41;;;;;;;10.52;3.72;;;;;;;;;;5114027;28;20515;-77
2021/07/13 07:22:08;;;;;;;11.07;4.38;;;;;;;;;;5113938;28;20031;-77
2021/07/13 07:24:35;;;;;;;6.97;3.88;;;;;;;;;;5114025;28;20027;-77
2021/07/13 07:27:01;;;;;;;8.48;4.65;;;;;;;;;;5114447;28;20039;-77
2021/07/13 07:29:27;;;;;;;5.82;4.18;;;;;;;;;;5114042;28;20035;-77
2021/07/13 07:31:53;;;;;;;5.60;4.22;;;;;;;;;;5095758;28;20400;-77
2021/07/13 07:34:20;;;;;;;6.63;4.13;;;;;;;;;;5113535;28;20028;-77
2021/07/13 07:36:46;;;;;;;6.32;3.90;;;;;;;;;;5113762;28;20495;-77
2021/07/13 07:39:12;;;;;;;6.07;4.40;;;;;;;;;;5095443;28;20039;-77
2021/07/13 07:41:38;;;;;;;5.35;3.83;;;;;;;;;;5114269;28;20032;-77
2021/07/13 07:44:05;;;;;;;9.85;4.05;;;;;;;;;;5113619;28;20031;-77
2021/07/13 07:46:31;;;;;;;23.70;4.20;;;;;;;;;;5114059;28;20536;-77
2021/07/13 07:48:58;;;;;;;6.43;3.90;;;;;;;;;;5113214;28;20118;-77
2021/07/13 07:51:25;;;;;;;6.05;4.40;;;;;;;;;;5095619;28;20534;-77
2021/07/13 07:53:51;;;;;;;5.22;4.25;;;;;;;;;;5113248;28;20035;-77
2021/07/13 07:56:17;;;;;;;7.25;3.88;;;;;;;;;;5113566;28;20032;-77
2021/07/13 07:58:43;;;;;;;5.22;3.92;;;;;;;;;;5113296;28;20051;-77
2021/07/13 08:01:10;;;;;;;6.00;3.88;;;;;;;;;;5113530;28;20118;-77
2021/07/13 08:03:37;;;;;;;7.57;3.97;;;;;;;;;;5095682;28;20040;-77
2021/07/13 08:06:03;;;;;;;5.38;4.25;;;;;;;;;;5113306;28;20032;-77
2021/07/13 08:08:29;;;;;;;8.13;4.00;;;;;;;;;;5113371;28;20055;-77
2021/07/13 08:10:55;;;;;;;5.28;4.05;;;;;;;;;;5094772;28;20039;-77
2021/07/13 08:13:22;;;;;;;6.50;4.40;;;;;;;;;;5113247;28;20036;-77
2021/07/13 08:15:48;;;;;;;6.57;4.10;;;;;;;;;;5112989;28;20031;-77
2021/07/13 08:18:16;;;;;;;5.88;4.00;;;;;;;;;;5112700;28;20051;-77
2021/07/13 08:20:42;;;;;;;5.18;3.60;;;;;;;;;;5112952;28;20051;-77
2021/07/13 08:23:08;;;;;;;5.07;3.97;;;;;;;;;;5113152;28;20555;-77
2021/07/13 08:25:34;;;;;;;6.68;3.95;;;;;;;;;;5112686;28;20035;-78
2021/07/13 08:28:01;;;;;;;5.45;3.90;;;;;;;;;;5113114;28;20036;-78
2021/07/13 08:30:28;;;;;;;7.00;4.18;;;;;;;;;;5112834;28;20032;-78
2021/07/13 08:32:55;;;;;;;5.47;4.03;;;;;;;;;;5112919;28;20046;-80
2021/07/13 08:35:21;;;;;;;5.65;4.35;;;;;;;;;;5098640;28;20034;-78
2021/07/13 08:37:49;;;;;;;4.63;4.05;;;;;;;;;;5099095;28;20126;-79
2021/07/13 08:40:15;;;;;;;5.28;4.18;;;;;;;;;;5117029;28;20123;-79
2021/07/13 08:42:43;;;;;;;4.72;4.00;;;;;;;;;;5098442;28;20418;-79
2021/07/13 08:45:18;;;;;;;5.07;4.03;;;;;;;;;;5116933;28;20042;-79
2021/07/13 08:47:45;;;;;;;4.65;4.05;;;;;;;;;;5116951;28;20039;-78
2021/07/13 08:50:12;;;;;;;9.02;4.32;;;;;;;;;;5116632;28;20568;-78
2021/07/13 08:52:39;;;;;;;8.38;4.50;;;;;;;;;;5116535;28;20483;-78
2021/07/13 08:55:06;;;;;;;4.70;4.07;;;;;;;;;;5116631;28;20439;-78
2021/07/13 08:57:32;;;;;;;4.65;4.18;;;;;;;;;;5081232;28;20114;-78
2021/07/13 08:59:58;;;;;;;5.10;4.60;;;;;;;;;;5116826;28;20036;-78
2021/07/13 09:02:25;;;;;;;6.25;4.30;;;;;;;;;;5116595;28;20034;-78
2021/07/13 09:04:51;;;;;;;5.78;4.60;;;;;;;;;;5098420;28;20039;-78
2021/07/13 09:07:18;;;;;;;5.88;4.65;;;;;;;;;;5116683;28;20031;-78
2021/07/13 09:09:47;;;;;;;7.63;4.50;;;;;;;;;;5098326;28;20031;-78
2021/07/13 09:12:18;;;;;;;5.57;4.18;;;;;;;;;;5098162;28;20032;-78
2021/07/13 09:14:55;;;;;;;7.88;4.65;;;;;;;;;;5116464;28;20079;-78
2021/07/13 09:17:31;;;;;;;6.65;4.53;;;;;;;;;;5115761;28;20416;-78
2021/07/13 09:20:01;;;;;;;10.77;4.93;;;;;;;;;;5116469;28;20470;-78
2021/07/13 09:22:28;;;;;;;4.78;4.13;;;;;;;;;;5098158;28;20066;-78
2021/07/13 09:24:55;;;;;;;5.85;4.65;;;;;;;;;;5116053;28;20070;-78
2021/07/13 09:27:22;;;;;;;6.43;4.22;;;;;;;;;;5115863;28;20035;-78
2021/07/13 09:29:51;;;;;;;4.60;4.20;;;;;;;;;;5116255;28;20030;-78
2021/07/13 09:32:17;;;;;;;5.00;4.50;;;;;;;;;;5116156;28;20043;-78
2021/07/13 09:34:54;;;;;;;5.65;4.32;;;;;;;;;;5116602;28;20027;-77
2021/07/13 09:37:25;;;;;;;7.15;4.45;;;;;;;;;;5116005;28;20043;-78
2021/07/13 09:39:58;;;;;;;5.93;4.93;;;;;;;;;;5116011;28;20038;-78
2021/07/13 09:42:26;;;;;;;8.35;4.75;;;;;;;;;;5116152;28;20100;-78
2021/07/13 09:44:53;;;;;;;5.72;4.82;;;;;;;;;;5115530;28;20089;-78
2021/07/13 09:47:29;;;;;;;5.07;4.57;;;;;;;;;;5097412;28;20388;-78
2021/07/13 09:49:55;;;;;;;5.25;4.75;;;;;;;;;;5097379;28;20122;-78
2021/07/13 09:52:25;;;;;;;4.88;4.47;;;;;;;;;;5115401;28;20040;-78
2021/07/13 09:54:52;;;;;;;6.07;4.78;;;;;;;;;;5115524;28;20483;-78
2021/07/13 09:57:20;;;;;;;6.15;4.63;;;;;;;;;;5115829;28;20044;-78
2021/07/13 09:59:47;;;;;;;7.07;4.70;;;;;;;;;;5115952;28;20044;-78
2021/07/13 10:02:17;;;;;;;6.82;4.93;;;;;;;;;;5115829;28;20027;-78
2021/07/13 10:04:46;;;;;;;7.68;4.80;;;;;;;;;;5097951;28;20042;-78
2021/07/13 10:07:14;;;;;;;5.75;4.80;;;;;;;;;;5097404;28;20453;-78
2021/07/13 10:09:47;;;;;;;5.15;4.70;;;;;;;;;;5115560;28;20031;-78
2021/07/13 10:12:15;;;;;;;5.15;4.65;;;;;;;;;;5097386;28;20077;-78
2021/07/13 10:14:42;;;;;;;6.53;4.90;;;;;;;;;;5115276;28;20126;-78
2021/07/13 10:17:09;;;;;;;5.57;4.38;;;;;;;;;;5114910;28;20051;-78
2021/07/13 10:20:04;;;;;;;6.15;4.60;;;;;;;;;;5096853;28;20625;-78
2021/07/13 10:22:32;;;;;;;6.25;4.88;;;;;;;;;;5097906;28;20039;-78
2021/07/13 10:24:59;;;;;;;4.65;4.25;;;;;;;;;;5096902;28;20103;-78
2021/07/13 10:27:30;;;;;;;6.45;4.75;;;;;;;;;;5115066;28;20500;-78
2021/07/13 10:30:00;;;;;;;7.18;4.05;;;;;;;;;;5114954;28;20035;-78
2021/07/13 10:32:27;;;;;;;4.85;4.38;;;;;;;;;;5114854;28;20074;-78
2021/07/13 10:34:54;;;;;;;5.57;5.07;;;;;;;;;;5114918;28;20051;-78
2021/07/13 10:37:25;;;;;;;6.97;5.22;;;;;;;;;;5096384;28;20039;-78
2021/07/13 10:39:52;;;;;;;5.97;4.47;;;;;;;;;;5096632;28;20034;-78
2021/07/13 10:42:37;;;;;;;6.68;5.00;;;;;;;;;;5096324;28;20484;-78
2021/07/13 10:45:24;;;;;;;6.03;5.00;;;;;;;;;;5114596;28;20043;-78
2021/07/13 10:47:58;;;;;;;6.10;4.63;;;;;;;;;;5100961;28;20116;-78
2021/07/13 10:50:27;;;;;;;5.10;4.60;;;;;;;;;;5114715;28;20028;-78
2021/07/13 10:52:55;;;;;;;5.68;5.07;;;;;;;;;;5114555;28;20031;-78
2021/07/13 10:55:31;;;;;;;5.35;4.43;;;;;;;;;;5114984;28;20050;-78
2021/07/13 10:58:13;;;;;;;5.55;5.05;;;;;;;;;;5113059;28;20513;-78
2021/07/13 11:03:33;;;;;;;6.65;5.28;;;;;;;;;;5114148;28;20095;-78
2021/07/13 11:06:06;;;;;;;5.72;5.00;;;;;;;;;;5096430;28;20044;-78
2021/07/13 11:08:45;;;;;;;8.32;5.35;;;;;;;;;;5095974;28;20448;-78
2021/07/13 11:11:23;;;;;;;6.68;5.20;;;;;;;;;;5114036;28;20036;-78
2021/07/13 11:13:52;;;;;;;8.20;5.20;;;;;;;;;;5114023;28;20031;-78
2021/07/13 11:16:22;;;;;;;6.00;4.78;;;;;;;;;;5114102;28;20072;-78
2021/07/13 11:18:48;;;;;;;7.07;4.90;;;;;;;;;;5114105;28;20032;-79
2021/07/13 11:21:14;;;;;;;5.57;5.07;;;;;;;;;;5113879;28;20114;-78
2021/07/13 11:23:41;;;;;;;6.05;5.45;;;;;;;;;;5113925;28;20028;-78
2021/07/13 11:26:08;;;;;;;8.07;5.55;;;;;;;;;;5113626;28;20039;-78
2021/07/13 11:28:36;;;;;;;5.97;5.15;;;;;;;;;;5113606;28;20043;-78
2021/07/13 11:31:06;;;;;;;8.27;5.05;;;;;;;;;;5094828;28;20038;-78
2021/07/13 11:33:33;;;;;;;6.75;5.38;;;;;;;;;;5114327;28;20046;-78
2021/07/13 11:36:00;;;;;;;9.18;5.53;;;;;;;;;;5113701;28;20550;-77
2021/07/13 11:38:31;;;;;;;9.13;5.40;;;;;;;;;;5113436;28;20035;-77
2021/07/13 11:41:10;;;;;;;6.20;5.68;;;;;;;;;;5113649;28;20027;-77
2021/07/13 11:43:36;;;;;;;7.07;5.03;;;;;;;;;;5113920;28;20574;-77
2021/07/13 11:46:17;;;;;;;6.75;5.97;;;;;;;;;;5113576;28;20032;-77
2021/07/13 11:49:03;;;;;;;9.18;5.75;;;;;;;;;;5095720;28;20035;-77
2021/07/13 11:51:40;;;;;;;5.90;5.30;;;;;;;;;;5099254;28;20051;-77
2021/07/13 11:54:11;;;;;;;6.82;5.43;;;;;;;;;;5113357;28;20032;-77
2021/07/13 11:56:39;;;;;;;7.25;5.18;;;;;;;;;;5113198;28;20062;-77
2021/07/13 11:59:06;;;;;;;7.90;5.70;;;;;;;;;;5113350;28;20482;-77
2021/07/13 12:01:33;;;;;;;7.72;5.78;;;;;;;;;;5095345;28;20036;-77
2021/07/13 12:04:04;;;;;;;7.13;5.28;;;;;;;;;;5094921;28;20045;-77
2021/07/13 12:06:30;;;;;;;5.82;5.32;;;;;;;;;;5113388;28;20066;-77
2021/07/13 12:08:58;;;;;;;7.18;5.70;;;;;;;;;;5112777;28;20142;-77
2021/07/13 12:11:28;;;;;;;8.02;5.70;;;;;;;;;;5113500;28;20036;-78
2021/07/13 12:13:55;;;;;;;8.25;5.78;;;;;;;;;;5095170;28;20130;-79
2021/07/13 12:16:24;;;;;;;6.65;5.93;;;;;;;;;;5112847;28;20035;-78
2021/07/13 12:18:53;;;;;;;6.70;5.90;;;;;;;;;;5095067;28;20051;-78
2021/07/13 12:21:20;;;;;;;6.00;5.40;;;;;;;;;;5094975;28;20039;-77
2021/07/13 12:23:47;;;;;;;7.68;6.25;;;;;;;;;;5113163;28;20498;-77
2021/07/13 12:26:20;;;;;;;7.85;5.60;;;;;;;;;;5112912;28;20400;-77
2021/07/13 12:29:19;;;;;;;6.60;6.00;;;;;;;;;;5095239;28;20092;-77
2021/07/13 12:31:45;;;;;;;7.93;6.32;;;;;;;;;;5061734;28;20395;-77
2021/07/13 12:34:17;;;;;;;9.82;6.03;;;;;;;;;;5112876;28;20134;-78
2021/07/13 12:36:44;;;;;;;8.43;5.80;;;;;;;;;;5112755;28;20027;-78
2021/07/13 12:39:20;;;;;;;8.90;5.70;;;;;;;;;;5094210;28;20039;-77
2021/07/13 12:41:56;;;;;;;6.68;6.03;;;;;;;;;;5112832;28;20036;-77
2021/07/13 12:44:46;;;;;;;9.73;5.90;;;;;;;;;;5112930;28;20028;-77
2021/07/13 12:47:13;;;;;;;7.10;6.13;;;;;;;;;;5102046;28;20051;-77
2021/07/13 12:49:39;;;;;;;6.30;5.70;;;;;;;;;;5113071;28;20027;-77
2021/07/13 12:52:10;;;;;;;6.97;6.28;;;;;;;;;;5094663;28;20507;-77
2021/07/13 12:54:54;;;;;;;9.80;6.22;;;;;;;;;;5113236;28;20054;-77
2021/07/13 12:57:40;;;;;;;6.78;6.10;;;;;;;;;;5112830;28;20031;-77
2021/07/13 13:00:17;;;;;;;6.93;6.22;;;;;;;;;;5094597;28;20035;-77
2021/07/13 13:02:44;;;;;;;10.18;6.45;;;;;;;;;;5112200;28;20055;-78
2021/07/13 13:05:24;;;;;;;6.45;5.85;;;;;;;;;;5094267;28;20050;-79
2021/07/13 13:08:09;;;;;;;6.75;6.03;;;;;;;;;;5112438;28;20035;-77
2021/07/13 13:10:36;;;;;;;7.43;6.15;;;;;;;;;;5112703;28;20042;-77
2021/07/13 13:13:03;;;;;;;10.05;6.38;;;;;;;;;;5112089;28;20110;-77
2021/07/13 13:15:30;;;;;;;8.63;5.70;;;;;;;;;;5112529;28;20050;-77
2021/07/13 13:17:57;;;;;;;7.43;6.72;;;;;;;;;;5112496;28;20059;-77
2021/07/13 13:20:23;;;;;;;6.78;6.05;;;;;;;;;;5094759;28;20104;-78
2021/07/13 13:22:51;;;;;;;6.95;5.82;;;;;;;;;;5098101;28;20096;-78
2021/07/13 13:25:18;;;;;;;6.63;5.88;;;;;;;;;;5098176;28;20039;-78
2021/07/13 13:27:44;;;;;;;6.78;6.07;;;;;;;;;;5116024;28;20085;-79
2021/07/13 13:30:12;;;;;;;10.85;6.40;;;;;;;;;;5116942;28;20035;-79
2021/07/13 13:32:38;;;;;;;6.50;5.90;;;;;;;;;;5116370;28;20487;-79
2021/07/13 13:35:09;;;;;;;7.05;6.38;;;;;;;;;;5116811;28;20024;-79
2021/07/13 13:40:22;;;;;;;7.63;5.82;;;;;;;;;;5116205;28;20050;-79
2021/07/13 13:42:49;;;;;;;7.57;6.18;;;;;;;;;;5116194;28;20031;-79
2021/07/13 13:45:15;;;;;;;6.93;6.20;;;;;;;;;;5116020;28;20039;-79
2021/07/13 13:47:41;;;;;;;8.75;6.55;;;;;;;;;;5115893;28;20510;-78
2021/07/13 13:50:09;;;;;;;8.70;6.78;;;;;;;;;;5116057;28;20042;-79
2021/07/13 13:52:35;;;;;;;6.78;6.18;;;;;;;;;;5097516;28;20091;-79
2021/07/13 13:55:02;;;;;;;7.25;6.63;;;;;;;;;;5115442;28;20035;-77
2021/07/13 13:57:28;;;;;;;8.02;6.93;;;;;;;;;;5114841;28;20047;-77
2021/07/13 13:59:55;;;;;;;7.63;6.53;;;;;;;;;;5115732;28;20032;-78
2021/07/13 14:02:21;;;;;;;7.50;6.80;;;;;;;;;;5114763;28;20036;-78
2021/07/13 14:04:47;;;;;;;6.90;6.30;;;;;;;;;;5115111;28;20398;-78
2021/07/13 14:07:14;;;;;;;7.90;7.15;;;;;;;;;;5115856;28;20123;-78
2021/07/13 14:09:40;;;;;;;8.48;6.60;;;;;;;;;;5097093;28;20507;-78
2021/07/13 14:12:09;;;;;;;8.38;7.00;;;;;;;;;;5115503;28;20064;-78
2021/07/13 14:14:37;;;;;;;7.55;6.85;;;;;;;;;;5115502;28;20071;-79
2021/07/13 14:17:04;;;;;;;7.40;6.78;;;;;;;;;;5093306;28;20056;-79
2021/07/13 14:19:30;;;;;;;8.45;6.20;;;;;;;;;;5094894;28;20040;-78
2021/07/13 14:21:56;;;;;;;12.13;7.35;;;;;;;;;;5094641;28;20493;-79